createdAt,value
2019-01-25T00:00:46.034Z,39.20
2019-01-25T00:03:26.181Z,39.23
2019-01-25T00:06:06.161Z,37.80
2019-01-25T00:08:46.303Z,36.63
2019-01-25T00:11:27.165Z,38.58
2019-01-25T00:14:06.970Z,39.38
2019-01-25T00:16:47.096Z,36.93
2019-01-25T00:19:27.172Z,37.33
2019-01-25T00:22:07.305Z,38.92
2019-01-25T00:24:48.490Z,35.43
2019-01-25T00:27:28.541Z,40.15
2019-01-25T00:30:08.740Z,37.50
2019-01-25T00:32:49.046Z,38.90
2019-01-25T00:35:29.745Z,38.78
2019-01-25T00:38:10.251Z,36.45
2019-01-25T00:40:50.354Z,37.33
2019-01-25T00:43:31.531Z,36.48
2019-01-25T00:46:11.639Z,37.73
2019-01-25T00:48:51.684Z,37.85
2019-01-25T00:51:32.156Z,37.88
2019-01-25T00:54:12.409Z,38.05
2019-01-25T00:56:52.197Z,36.45
2019-01-25T00:59:32.202Z,39.83
2019-01-25T01:02:12.335Z,38.55
2019-01-25T01:04:52.677Z,40.67
2019-01-25T01:07:32.686Z,39.25
2019-01-25T01:10:14.173Z,41.50
2019-01-25T01:12:54.772Z,42.73
2019-01-25T01:15:34.611Z,39.63
2019-01-25T01:18:15.156Z,36.38
2019-01-25T01:20:55.516Z,41.18
2019-01-25T01:23:35.432Z,38.70
2019-01-25T01:26:15.480Z,39.55
2019-01-25T01:28:55.534Z,40.52
2019-01-25T01:31:35.996Z,37.13
2019-01-25T01:34:15.814Z,38.83
2019-01-25T01:36:55.869Z,40.45
2019-01-25T01:39:36.125Z,40.30
2019-01-25T01:42:16.040Z,40.85
2019-01-25T01:44:55.924Z,39.53
2019-01-25T01:47:35.780Z,34.05
2019-01-25T01:50:16.085Z,35.30
2019-01-25T01:52:55.988Z,36.98
2019-01-25T01:55:36.153Z,37.35
2019-01-25T01:58:16.160Z,38.13
2019-01-25T02:00:56.470Z,37.80
2019-01-25T02:03:36.350Z,38.02
2019-01-25T02:06:16.527Z,33.78
2019-01-25T02:08:56.889Z,35.38
2019-01-25T02:11:36.687Z,37.05
2019-01-25T02:14:16.874Z,38.00
2019-01-25T02:16:57.068Z,36.05
2019-01-25T02:19:37.149Z,32.50
2019-01-25T02:22:17.635Z,36.65
2019-01-25T02:24:57.651Z,35.28
2019-01-25T02:27:37.368Z,34.70
2019-01-25T02:30:17.486Z,35.20
2019-01-25T02:32:57.604Z,34.35
2019-01-25T02:35:37.747Z,31.07
2019-01-25T02:38:18.470Z,36.05
2019-01-25T02:40:58.962Z,33.63
2019-01-25T02:43:39.274Z,34.98
2019-01-25T02:46:19.513Z,32.88
2019-01-25T02:48:59.358Z,34.90
2019-01-25T02:51:39.558Z,38.20
2019-01-25T02:54:19.776Z,37.33
2019-01-25T02:57:00.162Z,33.48
2019-01-25T02:59:40.090Z,33.67
2019-01-25T03:02:20.189Z,36.05
2019-01-25T03:05:00.372Z,34.58
2019-01-25T03:07:40.497Z,37.58
2019-01-25T03:10:28.253Z,36.90
2019-01-25T03:13:02.907Z,35.33
2019-01-25T03:15:43.186Z,34.67
2019-01-25T03:18:23.160Z,35.55
2019-01-25T03:21:05.046Z,34.83
2019-01-25T03:23:45.577Z,34.90
2019-01-25T03:26:25.928Z,36.90
2019-01-25T03:29:06.083Z,35.23
2019-01-25T03:31:46.177Z,35.30
2019-01-25T03:34:26.526Z,35.23
2019-01-25T03:37:06.690Z,35.35
2019-01-25T03:39:46.670Z,34.10
2019-01-25T03:42:27.135Z,32.28
2019-01-25T03:45:06.864Z,36.05
2019-01-25T03:47:47.362Z,35.30
2019-01-25T03:50:27.120Z,32.95
2019-01-25T03:53:07.145Z,35.15
2019-01-25T03:55:47.552Z,34.38
2019-01-25T03:58:27.254Z,31.85
2019-01-25T04:01:07.592Z,30.15
2019-01-25T04:03:47.398Z,30.17
2019-01-25T04:06:27.498Z,32.17
2019-01-25T04:09:07.599Z,33.73
2019-01-25T04:11:47.989Z,32.13
2019-01-25T04:14:28.895Z,28.90
2019-01-25T04:17:09.900Z,30.90
2019-01-25T04:19:49.848Z,30.75
2019-01-25T04:22:30.043Z,28.73
2019-01-25T04:25:10.126Z,29.25
2019-01-25T04:27:50.352Z,30.35
2019-01-25T04:30:30.334Z,30.50
2019-01-25T04:33:10.308Z,27.22
2019-01-25T04:35:50.575Z,26.52
2019-01-25T04:38:30.763Z,28.00
2019-01-25T04:41:11.692Z,28.38
2019-01-25T04:43:39.894Z,26.50
2019-01-25T04:46:27.490Z,26.68
2019-01-25T04:49:07.968Z,24.10
2019-01-25T04:51:48.066Z,28.00
2019-01-25T04:54:28.287Z,28.10
2019-01-25T04:57:08.427Z,27.05
2019-01-25T04:59:48.553Z,26.00
2019-01-25T05:02:28.598Z,25.05
2019-01-25T05:05:08.532Z,24.15
2019-01-25T05:13:46.610Z,23.15
2019-01-25T05:16:26.668Z,27.35
2019-01-25T05:19:06.663Z,23.83
2019-01-25T05:21:46.597Z,22.40
2019-01-25T05:24:27.041Z,23.85
2019-01-25T05:27:07.123Z,23.42
2019-01-25T05:29:47.158Z,22.98
2019-01-25T05:32:27.123Z,24.45
2019-01-25T05:35:07.334Z,23.40
2019-01-25T05:37:47.433Z,22.58
2019-01-25T05:40:27.903Z,22.48
2019-01-25T05:43:08.462Z,23.50
2019-01-25T05:45:48.540Z,22.55
2019-01-25T05:48:28.500Z,24.12
2019-01-25T05:51:08.678Z,24.70
2019-01-25T05:53:48.794Z,23.95
2019-01-25T05:56:28.878Z,22.15
2019-01-25T05:59:09.022Z,23.75
2019-01-25T06:01:49.244Z,22.32
2019-01-25T06:04:29.411Z,24.55
2019-01-25T06:07:09.276Z,25.48
2019-01-25T06:09:49.409Z,26.07
2019-01-25T06:12:29.744Z,24.00
2019-01-25T06:15:09.685Z,21.82
2019-01-25T06:17:53.365Z,22.93
2019-01-25T06:20:33.478Z,25.12
2019-01-25T06:23:13.568Z,24.90
2019-01-25T06:25:53.335Z,26.05
2019-01-25T06:28:33.435Z,26.82
2019-01-25T06:31:15.577Z,27.65
2019-01-25T06:33:55.492Z,29.30
2019-01-25T06:36:35.288Z,29.95
2019-01-25T06:39:15.423Z,27.82
2019-01-25T06:41:55.258Z,28.90
2019-01-25T06:44:35.521Z,29.75
2019-01-25T06:47:15.735Z,30.70
2019-01-25T06:49:55.824Z,32.05
2019-01-25T06:52:36.947Z,32.05
2019-01-25T06:55:16.820Z,32.30
2019-01-25T07:01:24.728Z,31.00
2019-01-25T07:04:05.285Z,31.57
2019-01-25T07:06:45.763Z,30.55
2019-01-25T07:09:25.689Z,30.90
2019-01-25T07:12:05.378Z,31.55
2019-01-25T07:14:45.421Z,29.92
2019-01-25T07:17:25.468Z,31.17
2019-01-25T07:20:05.511Z,32.00
2019-01-25T07:22:45.858Z,35.40
2019-01-25T07:25:24.182Z,34.38
2019-01-25T07:28:11.592Z,35.20
2019-01-25T07:30:51.204Z,36.80
2019-01-25T07:33:31.454Z,34.10
2019-01-25T07:36:12.143Z,32.75
2019-01-25T07:38:51.787Z,34.08
2019-01-25T07:41:31.790Z,33.90
2019-01-25T07:44:11.708Z,34.98
2019-01-25T07:46:51.816Z,35.30
2019-01-25T07:49:31.909Z,35.55
2019-01-25T07:52:12.178Z,36.38
2019-01-25T07:54:52.527Z,34.70
2019-01-25T07:57:32.961Z,37.83
2019-01-25T08:00:12.992Z,32.80
2019-01-25T08:02:53.053Z,34.30
2019-01-25T08:05:32.981Z,33.73
2019-01-25T08:08:12.937Z,36.10
2019-01-25T08:10:53.178Z,35.45
2019-01-25T08:13:33.366Z,33.63
2019-01-25T08:19:12.890Z,33.35
2019-01-25T08:21:52.803Z,30.25
2019-01-25T08:24:33.228Z,34.25
2019-01-25T08:27:13.553Z,37.28
2019-01-25T08:29:53.380Z,34.73
2019-01-25T08:32:33.737Z,37.23
2019-01-25T08:35:14.493Z,35.65
2019-01-25T08:37:54.260Z,34.25
2019-01-25T08:40:34.614Z,32.85
2019-01-25T08:43:14.553Z,33.67
2019-01-25T08:45:54.605Z,31.42
2019-01-25T08:48:34.551Z,32.70
2019-01-25T08:51:14.678Z,31.77
2019-01-25T08:53:54.369Z,33.80
2019-01-25T08:56:34.287Z,33.20
2019-01-25T08:59:14.384Z,31.85
2019-01-25T09:01:54.516Z,33.40
2019-01-25T09:04:35.651Z,34.63
2019-01-25T09:07:16.012Z,30.70
2019-01-25T09:09:56.303Z,33.90
2019-01-25T09:12:36.107Z,34.45
2019-01-25T09:15:16.552Z,34.25
2019-01-25T09:17:57.863Z,33.75
2019-01-25T09:20:37.871Z,34.23
2019-01-25T09:23:18.075Z,32.63
2019-01-25T09:26:01.010Z,30.88
2019-01-25T09:28:40.464Z,41.42
2019-01-25T09:31:20.584Z,38.58
2019-01-25T09:34:01.269Z,39.27
2019-01-25T09:36:41.432Z,37.63
2019-01-25T09:39:21.744Z,33.13
2019-01-25T09:42:01.814Z,29.67
2019-01-25T09:44:42.039Z,31.05
2019-01-25T09:47:21.930Z,31.52
2019-01-25T09:50:02.108Z,34.08
2019-01-25T09:52:42.030Z,31.82
2019-01-25T09:55:24.542Z,33.92
2019-01-25T09:58:04.376Z,32.88
2019-01-25T10:00:44.404Z,34.83
2019-01-25T10:03:24.244Z,32.38
2019-01-25T10:06:04.490Z,33.90
2019-01-25T10:08:44.686Z,33.55
2019-01-25T10:11:24.582Z,32.25
2019-01-25T10:14:04.601Z,32.93
2019-01-25T10:16:45.177Z,34.33
2019-01-25T10:19:24.911Z,32.75
2019-01-25T10:22:04.956Z,34.35
2019-01-25T10:24:45.058Z,33.65
2019-01-25T10:27:25.112Z,31.33
2019-01-25T10:30:05.168Z,33.05
2019-01-25T10:32:45.016Z,33.88
2019-01-25T10:35:26.562Z,33.55
2019-01-25T10:38:06.077Z,34.35
2019-01-25T10:40:47.023Z,35.85
2019-01-25T10:43:27.726Z,35.80
2019-01-25T10:46:07.473Z,33.10
2019-01-25T10:48:47.766Z,29.67
2019-01-25T10:51:27.726Z,36.35
2019-01-25T10:54:07.808Z,35.05
2019-01-25T10:56:48.134Z,32.55
2019-01-25T10:59:28.016Z,29.72
2019-01-25T11:02:08.395Z,33.35
2019-01-25T11:04:48.557Z,31.60
2019-01-25T11:07:28.506Z,31.50
2019-01-25T11:10:08.528Z,32.33
2019-01-25T11:12:48.424Z,32.55
2019-01-25T11:15:28.600Z,34.70
2019-01-25T11:18:08.770Z,31.52
2019-01-25T11:20:48.980Z,31.57
2019-01-25T11:23:29.328Z,30.30
2019-01-25T11:26:09.156Z,29.85
2019-01-25T11:28:49.440Z,30.72
2019-01-25T11:31:29.583Z,30.57
2019-01-25T11:34:09.260Z,32.73
2019-01-25T11:36:49.670Z,32.23
2019-01-25T11:39:29.772Z,28.80
2019-01-25T11:42:09.768Z,33.20
2019-01-25T11:44:49.729Z,32.67
2019-01-25T11:47:29.966Z,30.32
2019-01-25T11:50:10.154Z,29.32
2019-01-25T11:52:50.658Z,33.55
2019-01-25T11:55:31.296Z,33.92
2019-01-25T11:58:12.244Z,27.90
2019-01-25T12:00:52.193Z,35.15
2019-01-25T12:03:32.225Z,28.65
2019-01-25T12:06:12.212Z,30.40
2019-01-25T12:08:52.866Z,28.20
2019-01-25T12:11:32.812Z,28.87
2019-01-25T12:14:12.487Z,29.18
2019-01-25T12:16:52.806Z,29.10
2019-01-25T12:19:32.687Z,28.27
2019-01-25T12:22:12.825Z,30.52
2019-01-25T12:24:52.630Z,29.80
2019-01-25T12:27:32.539Z,29.67
2019-01-25T12:30:12.702Z,29.02
2019-01-25T12:32:52.873Z,28.20
2019-01-25T12:35:32.952Z,26.57
2019-01-25T12:38:13.244Z,29.77
2019-01-25T12:40:53.292Z,26.35
2019-01-25T12:43:33.333Z,27.42
2019-01-25T12:46:13.430Z,28.15
2019-01-25T12:48:53.510Z,25.12
2019-01-25T12:51:33.566Z,25.45
2019-01-25T12:54:13.736Z,28.30
2019-01-25T12:56:53.688Z,24.52
2019-01-25T12:59:33.789Z,25.80
2019-01-25T13:02:13.848Z,27.50
2019-01-25T13:04:54.093Z,25.52
2019-01-25T13:07:33.942Z,26.17
2019-01-25T13:10:14.353Z,27.77
2019-01-25T13:12:54.263Z,27.77
2019-01-25T13:15:34.398Z,26.62
2019-01-25T13:18:14.811Z,27.35
2019-01-25T13:20:55.389Z,26.60
2019-01-25T13:23:35.728Z,27.02
2019-01-25T13:26:15.891Z,25.85
2019-01-25T13:28:56.923Z,25.32
2019-01-25T13:31:37.162Z,26.82
2019-01-25T13:34:17.844Z,27.00
2019-01-25T13:36:57.905Z,27.22
2019-01-25T13:39:38.047Z,24.40
2019-01-25T13:42:18.308Z,24.77
2019-01-25T13:44:58.202Z,24.90
2019-01-25T13:47:38.728Z,25.35
2019-01-25T13:50:18.708Z,24.35
2019-01-25T13:52:58.828Z,27.10
2019-01-25T13:55:38.997Z,24.45
2019-01-25T13:58:19.019Z,26.07
2019-01-25T14:00:59.112Z,22.70
2019-01-25T14:03:39.163Z,24.43
2019-01-25T14:06:19.372Z,23.57
2019-01-25T14:08:59.544Z,20.72
2019-01-25T14:11:39.568Z,19.75
2019-01-25T14:14:19.599Z,20.95
2019-01-25T14:16:59.476Z,20.62
2019-01-25T14:19:39.930Z,19.65
2019-01-25T14:22:19.900Z,21.15
2019-01-25T14:25:00.622Z,20.32
2019-01-25T14:27:41.193Z,20.23
2019-01-25T14:30:21.369Z,21.73
2019-01-25T14:33:01.545Z,20.30
2019-01-25T14:35:41.569Z,17.02
2019-01-25T14:38:21.386Z,18.30
2019-01-25T14:41:01.613Z,19.50
2019-01-25T14:43:42.568Z,18.37
2019-01-25T14:46:22.752Z,19.65
2019-01-25T14:49:02.977Z,20.27
2019-01-25T14:51:42.886Z,21.57
2019-01-25T14:54:22.631Z,18.25
2019-01-25T14:57:02.680Z,21.25
2019-01-25T14:59:42.739Z,19.05
2019-01-25T15:02:23.221Z,19.30
2019-01-25T15:05:03.119Z,18.82
2019-01-25T15:07:43.076Z,18.05
2019-01-25T15:10:22.892Z,18.23
2019-01-25T15:13:04.061Z,19.00
2019-01-25T15:15:44.185Z,18.32
2019-01-25T15:18:24.106Z,20.45
2019-01-25T15:21:04.443Z,18.48
2019-01-25T15:23:44.858Z,17.55
2019-01-25T15:26:25.272Z,18.05
2019-01-25T15:29:03.589Z,31.52
2019-01-25T15:31:51.003Z,19.48
2019-01-25T15:34:31.017Z,20.40
2019-01-25T15:37:11.050Z,18.15
2019-01-25T15:39:51.309Z,20.30
2019-01-25T15:42:30.881Z,18.67
2019-01-25T15:45:11.129Z,22.35
2019-01-25T15:47:51.380Z,17.90
2019-01-25T15:50:31.294Z,17.25
2019-01-25T15:53:11.539Z,15.32
2019-01-25T15:55:51.557Z,18.25
2019-01-25T15:58:31.300Z,17.45
2019-01-25T16:01:11.672Z,15.70
2019-01-25T16:03:51.541Z,16.82
2019-01-25T16:06:31.931Z,17.67
2019-01-25T16:09:14.599Z,17.32
2019-01-25T16:11:53.398Z,17.70
2019-01-25T16:14:33.646Z,17.23
2019-01-25T16:17:13.461Z,15.50
2019-01-25T16:19:53.442Z,15.30
2019-01-25T16:22:33.404Z,16.23
2019-01-25T16:25:13.914Z,14.00
2019-01-25T16:27:53.537Z,17.12
2019-01-25T16:30:33.693Z,17.55
2019-01-25T16:33:13.344Z,18.87
2019-01-25T16:35:53.680Z,19.80
2019-01-25T16:38:33.731Z,18.85
2019-01-25T16:41:14.340Z,15.55
2019-01-25T16:43:53.887Z,16.15
2019-01-25T16:46:34.020Z,18.30
2019-01-25T16:49:14.080Z,17.35
2019-01-25T16:51:54.383Z,17.85
2019-01-25T16:54:34.444Z,16.45
2019-01-25T16:57:14.833Z,17.62
2019-01-25T16:59:54.569Z,15.38
2019-01-25T17:02:34.304Z,13.48
2019-01-25T17:05:14.452Z,14.25
2019-01-25T17:07:55.786Z,14.20
2019-01-25T17:10:35.642Z,13.62
2019-01-25T17:13:43.946Z,14.20
2019-01-25T17:16:30.953Z,14.03
2019-01-25T17:19:10.718Z,15.20
2019-01-25T17:21:51.137Z,15.58
2019-01-25T17:24:31.340Z,15.70
2019-01-25T17:27:11.104Z,16.10
2019-01-25T17:29:51.122Z,14.85
2019-01-25T17:32:31.334Z,14.30
2019-01-25T17:35:11.319Z,13.95
2019-01-25T17:37:51.683Z,15.15
2019-01-25T17:40:31.740Z,13.20
2019-01-25T17:43:12.278Z,14.35
2019-01-25T17:45:52.262Z,13.85
2019-01-25T17:48:32.462Z,13.60
2019-01-25T17:51:13.024Z,12.90
2019-01-25T17:53:53.280Z,13.88
2019-01-25T17:56:33.336Z,13.72
2019-01-25T17:59:12.724Z,13.65
2019-01-25T18:01:54.274Z,14.78
2019-01-25T18:04:32.348Z,15.25
2019-01-25T18:07:19.316Z,15.88
2019-01-25T18:09:59.382Z,14.70
2019-01-25T18:12:39.148Z,15.43
2019-01-25T18:15:19.515Z,13.65
2019-01-25T18:17:59.588Z,14.65
2019-01-25T18:20:39.578Z,13.88
2019-01-25T18:23:20.049Z,14.70
2019-01-25T18:25:59.594Z,15.48
2019-01-25T18:28:39.617Z,14.20
2019-01-25T18:31:19.423Z,14.05
2019-01-25T18:33:59.404Z,14.85
2019-01-25T18:36:39.166Z,13.15
2019-01-25T18:39:19.656Z,15.43
2019-01-25T18:41:59.405Z,15.72
2019-01-25T18:44:39.728Z,13.70
2019-01-25T18:47:20.004Z,14.63
2019-01-25T18:50:00.013Z,13.15
2019-01-25T18:52:40.266Z,11.97
2019-01-25T18:55:20.377Z,14.23
2019-01-25T18:58:00.383Z,13.22
2019-01-25T19:00:40.323Z,12.50
2019-01-25T19:03:20.366Z,13.45
2019-01-25T19:06:00.541Z,15.13
2019-01-25T19:08:40.653Z,12.13
2019-01-25T19:11:20.757Z,12.25
2019-01-25T19:14:00.782Z,12.85
2019-01-25T19:16:40.953Z,10.75
2019-01-25T19:19:21.417Z,10.78
2019-01-25T19:22:01.372Z,10.80
2019-01-25T19:24:41.171Z,10.53
2019-01-25T19:27:21.299Z,10.05
2019-01-25T19:30:01.206Z,11.80
2019-01-25T19:32:41.460Z,11.78
2019-01-25T19:35:21.225Z,12.07
2019-01-25T19:38:01.237Z,11.83
2019-01-25T19:40:41.209Z,12.30
2019-01-25T19:43:22.054Z,10.50
2019-01-25T19:46:02.808Z,11.00
2019-01-25T19:48:42.538Z,10.88
2019-01-25T19:51:22.846Z,10.70
2019-01-25T19:54:02.642Z,13.75
2019-01-25T19:56:42.550Z,10.82
2019-01-25T20:02:26.379Z,12.43
2019-01-25T20:05:06.395Z,11.60
2019-01-25T20:07:46.488Z,11.60
2019-01-25T20:10:27.105Z,12.03
2019-01-25T20:13:06.941Z,12.68
2019-01-25T20:15:46.859Z,12.25
2019-01-25T20:18:27.189Z,11.25
2019-01-25T20:21:07.337Z,11.93
2019-01-25T20:23:47.305Z,11.65
2019-01-25T20:26:28.418Z,13.55
2019-01-25T20:29:08.333Z,12.53
2019-01-25T20:31:48.576Z,12.15
2019-01-25T20:34:28.808Z,11.50
2019-01-25T20:37:08.952Z,11.25
2019-01-25T20:39:49.837Z,11.18
2019-01-25T20:42:30.238Z,10.35
2019-01-25T20:45:10.308Z,11.15
2019-01-25T20:47:50.453Z,11.22
2019-01-25T20:50:30.693Z,10.15
2019-01-25T20:53:10.521Z,12.10
2019-01-25T20:55:50.499Z,10.60
2019-01-25T20:58:30.488Z,9.75
2019-01-25T21:01:10.301Z,10.63
2019-01-25T21:03:50.965Z,10.58
2019-01-25T21:06:30.803Z,9.20
2019-01-25T21:09:10.968Z,9.95
2019-01-25T21:15:13.237Z,10.50
2019-01-25T21:17:53.532Z,9.95
2019-01-25T21:20:33.582Z,9.23
2019-01-25T21:23:13.746Z,9.75
2019-01-25T21:25:53.728Z,10.93
2019-01-25T21:28:33.845Z,10.05
2019-01-25T21:31:13.971Z,10.63
2019-01-25T21:33:54.183Z,9.63
2019-01-25T21:36:33.932Z,10.63
2019-01-25T21:39:14.117Z,10.35
2019-01-25T21:41:54.095Z,9.08
2019-01-25T21:44:34.100Z,10.23
2019-01-25T21:47:14.188Z,8.65
2019-01-25T21:49:54.387Z,8.65
2019-01-25T21:52:34.365Z,11.00
2019-01-25T21:55:14.545Z,10.08
2019-01-25T21:57:54.512Z,9.90
2019-01-25T22:00:34.548Z,10.08
2019-01-25T22:03:14.493Z,10.32
2019-01-25T22:05:54.715Z,10.00
2019-01-25T22:08:34.608Z,10.15
2019-01-25T22:11:15.030Z,10.95
2019-01-25T22:13:55.362Z,11.75
2019-01-25T22:16:35.912Z,11.70
2019-01-25T22:19:15.899Z,10.30
2019-01-25T22:21:56.028Z,10.75
2019-01-25T22:24:36.391Z,9.85
2019-01-25T22:27:16.244Z,11.33
2019-01-25T22:29:56.795Z,9.53
2019-01-25T22:32:37.156Z,10.00
2019-01-25T22:35:16.940Z,10.13
2019-01-25T22:37:57.413Z,9.33
2019-01-25T22:40:37.140Z,10.63
2019-01-25T22:43:17.566Z,9.85
2019-01-25T22:45:58.747Z,9.78
2019-01-25T22:48:40.044Z,10.72
2019-01-25T22:51:23.319Z,10.13
2019-01-25T22:54:03.140Z,9.75
2019-01-25T22:56:43.249Z,9.78
2019-01-25T22:59:23.380Z,10.03
2019-01-25T23:02:03.484Z,11.20
2019-01-25T23:04:52.125Z,10.28
2019-01-25T23:07:39.242Z,9.50
2019-01-25T23:10:19.548Z,10.70
2019-01-25T23:12:59.908Z,10.05
2019-01-25T23:15:40.168Z,9.38
2019-01-25T23:18:19.923Z,10.43
2019-01-25T23:21:00.485Z,10.80
2019-01-25T23:23:41.050Z,9.58
2019-01-25T23:26:21.700Z,9.70
2019-01-25T23:29:01.627Z,10.20
2019-01-25T23:31:41.512Z,11.35
2019-01-25T23:34:21.925Z,9.70
2019-01-25T23:37:01.851Z,9.55
2019-01-25T23:39:42.200Z,10.45
2019-01-25T23:42:21.927Z,10.80
2019-01-25T23:45:02.314Z,10.75
2019-01-25T23:47:42.391Z,10.35
2019-01-25T23:50:22.265Z,11.73
2019-01-25T23:53:02.548Z,12.13
2019-01-25T23:55:42.563Z,10.30
2019-01-25T23:58:23.012Z,10.45
